sensor_id;sensor_type;location;lat;lon;timestamp;P1;durP1;ratioP1;P2;durP2;ratioP2
37873;SDS011;23709;48.078;11.684;2023-07-30T00:01:24;4.78;;;1.95;;
37873;SDS011;23709;48.078;11.684;2023-07-30T00:03:57;2.78;;;2.00;;
37873;SDS011;23709;48.078;11.684;2023-07-30T00:06:30;2.13;;;1.58;;
37873;SDS011;23709;48.078;11.684;2023-07-30T00:09:03;3.08;;;2.05;;
37873;SDS011;23709;48.078;11.684;2023-07-30T00:11:36;2.22;;;1.70;;
37873;SDS011;23709;48.078;11.684;2023-07-30T00:14:09;4.03;;;2.17;;
37873;SDS011;23709;48.078;11.684;2023-07-30T00:16:42;3.47;;;2.28;;
37873;SDS011;23709;48.078;11.684;2023-07-30T00:19:14;2.40;;;1.80;;
37873;SDS011;23709;48.078;11.684;2023-07-30T00:21:46;4.40;;;1.80;;
37873;SDS011;23709;48.078;11.684;2023-07-30T00:24:19;3.30;;;2.00;;
37873;SDS011;23709;48.078;11.684;2023-07-30T00:26:54;5.03;;;1.88;;
37873;SDS011;23709;48.078;11.684;2023-07-30T00:29:26;3.88;;;2.10;;
37873;SDS011;23709;48.078;11.684;2023-07-30T00:31:58;12.55;;;2.20;;
37873;SDS011;23709;48.078;11.684;2023-07-30T00:34:31;3.20;;;2.13;;
37873;SDS011;23709;48.078;11.684;2023-07-30T00:37:03;3.15;;;1.90;;
37873;SDS011;23709;48.078;11.684;2023-07-30T00:39:35;4.28;;;2.08;;
37873;SDS011;23709;48.078;11.684;2023-07-30T00:42:08;3.28;;;2.00;;
37873;SDS011;23709;48.078;11.684;2023-07-30T00:44:40;2.22;;;1.60;;
37873;SDS011;23709;48.078;11.684;2023-07-30T00:47:12;2.65;;;1.98;;
37873;SDS011;23709;48.078;11.684;2023-07-30T00:49:44;2.45;;;1.80;;
37873;SDS011;23709;48.078;11.684;2023-07-30T00:52:17;2.92;;;2.17;;
37873;SDS011;23709;48.078;11.684;2023-07-30T00:54:52;3.80;;;2.00;;
37873;SDS011;23709;48.078;11.684;2023-07-30T00:57:28;2.35;;;1.83;;
37873;SDS011;23709;48.078;11.684;2023-07-30T01:00:01;3.50;;;1.85;;
37873;SDS011;23709;48.078;11.684;2023-07-30T01:02:36;5.25;;;2.05;;
37873;SDS011;23709;48.078;11.684;2023-07-30T01:05:08;5.40;;;2.00;;
37873;SDS011;23709;48.078;11.684;2023-07-30T01:07:41;5.25;;;1.75;;
37873;SDS011;23709;48.078;11.684;2023-07-30T01:10:13;4.80;;;2.10;;
37873;SDS011;23709;48.078;11.684;2023-07-30T01:12:46;4.78;;;2.10;;
37873;SDS011;23709;48.078;11.684;2023-07-30T01:15:18;3.23;;;2.10;;
37873;SDS011;23709;48.078;11.684;2023-07-30T01:17:51;4.15;;;1.85;;
37873;SDS011;23709;48.078;11.684;2023-07-30T01:20:24;2.88;;;1.90;;
37873;SDS011;23709;48.078;11.684;2023-07-30T01:22:56;2.67;;;1.85;;
37873;SDS011;23709;48.078;11.684;2023-07-30T01:28:02;3.90;;;2.20;;
37873;SDS011;23709;48.078;11.684;2023-07-30T01:30:38;2.85;;;2.00;;
37873;SDS011;23709;48.078;11.684;2023-07-30T01:33:15;7.70;;;2.13;;
37873;SDS011;23709;48.078;11.684;2023-07-30T01:35:47;3.28;;;1.95;;
37873;SDS011;23709;48.078;11.684;2023-07-30T01:38:21;3.53;;;2.17;;
37873;SDS011;23709;48.078;11.684;2023-07-30T01:40:54;2.55;;;1.88;;
37873;SDS011;23709;48.078;11.684;2023-07-30T01:43:26;4.47;;;2.10;;
37873;SDS011;23709;48.078;11.684;2023-07-30T01:45:59;3.28;;;1.90;;
37873;SDS011;23709;48.078;11.684;2023-07-30T01:48:34;2.67;;;1.95;;
37873;SDS011;23709;48.078;11.684;2023-07-30T01:51:06;2.42;;;1.85;;
37873;SDS011;23709;48.078;11.684;2023-07-30T01:53:38;2.45;;;1.90;;
37873;SDS011;23709;48.078;11.684;2023-07-30T01:56:10;3.70;;;2.30;;
37873;SDS011;23709;48.078;11.684;2023-07-30T01:58:43;2.83;;;2.10;;
37873;SDS011;23709;48.078;11.684;2023-07-30T02:01:15;5.90;;;1.85;;
37873;SDS011;23709;48.078;11.684;2023-07-30T02:03:50;3.78;;;2.60;;
37873;SDS011;23709;48.078;11.684;2023-07-30T02:06:22;3.05;;;1.90;;
37873;SDS011;23709;48.078;11.684;2023-07-30T02:08:55;1.77;;;1.58;;
37873;SDS011;23709;48.078;11.684;2023-07-30T02:11:27;2.95;;;2.17;;
37873;SDS011;23709;48.078;11.684;2023-07-30T02:14:00;3.75;;;2.20;;
37873;SDS011;23709;48.078;11.684;2023-07-30T02:16:32;2.88;;;2.33;;
37873;SDS011;23709;48.078;11.684;2023-07-30T02:19:05;4.10;;;2.58;;
37873;SDS011;23709;48.078;11.684;2023-07-30T02:21:37;2.60;;;2.33;;
37873;SDS011;23709;48.078;11.684;2023-07-30T02:24:14;5.15;;;2.22;;
37873;SDS011;23709;48.078;11.684;2023-07-30T02:26:46;4.03;;;2.33;;
37873;SDS011;23709;48.078;11.684;2023-07-30T02:29:21;3.88;;;2.30;;
37873;SDS011;23709;48.078;11.684;2023-07-30T02:31:53;3.08;;;2.33;;
37873;SDS011;23709;48.078;11.684;2023-07-30T02:34:26;3.20;;;2.17;;
37873;SDS011;23709;48.078;11.684;2023-07-30T02:36:58;2.95;;;2.30;;
37873;SDS011;23709;48.078;11.684;2023-07-30T02:39:31;2.70;;;2.10;;
37873;SDS011;23709;48.078;11.684;2023-07-30T02:42:03;3.40;;;2.50;;
37873;SDS011;23709;48.078;11.684;2023-07-30T02:44:35;2.90;;;2.20;;
37873;SDS011;23709;48.078;11.684;2023-07-30T02:47:08;3.90;;;2.58;;
37873;SDS011;23709;48.078;11.684;2023-07-30T02:49:40;4.93;;;2.17;;
37873;SDS011;23709;48.078;11.684;2023-07-30T02:52:12;4.82;;;2.40;;
37873;SDS011;23709;48.078;11.684;2023-07-30T02:54:44;3.20;;;2.33;;
37873;SDS011;23709;48.078;11.684;2023-07-30T02:57:17;3.83;;;2.47;;
37873;SDS011;23709;48.078;11.684;2023-07-30T02:59:49;3.45;;;2.45;;
37873;SDS011;23709;48.078;11.684;2023-07-30T03:02:21;5.93;;;2.92;;
37873;SDS011;23709;48.078;11.684;2023-07-30T03:04:54;3.15;;;2.35;;
37873;SDS011;23709;48.078;11.684;2023-07-30T03:10:00;3.95;;;2.20;;
37873;SDS011;23709;48.078;11.684;2023-07-30T03:12:32;4.78;;;2.30;;
37873;SDS011;23709;48.078;11.684;2023-07-30T03:15:05;4.65;;;2.80;;
37873;SDS011;23709;48.078;11.684;2023-07-30T03:17:37;4.60;;;2.60;;
37873;SDS011;23709;48.078;11.684;2023-07-30T03:20:10;2.83;;;2.22;;
37873;SDS011;23709;48.078;11.684;2023-07-30T03:22:42;4.47;;;2.40;;
37873;SDS011;23709;48.078;11.684;2023-07-30T03:25:15;2.38;;;2.08;;
37873;SDS011;23709;48.078;11.684;2023-07-30T03:27:47;3.17;;;2.10;;
37873;SDS011;23709;48.078;11.684;2023-07-30T03:30:19;5.60;;;2.50;;
37873;SDS011;23709;48.078;11.684;2023-07-30T03:32:53;9.63;;;2.55;;
37873;SDS011;23709;48.078;11.684;2023-07-30T03:35:25;3.20;;;2.38;;
37873;SDS011;23709;48.078;11.684;2023-07-30T03:37:57;3.28;;;2.70;;
37873;SDS011;23709;48.078;11.684;2023-07-30T03:40:30;3.63;;;2.25;;
37873;SDS011;23709;48.078;11.684;2023-07-30T03:43:02;3.50;;;2.60;;
37873;SDS011;23709;48.078;11.684;2023-07-30T03:45:34;3.95;;;2.47;;
37873;SDS011;23709;48.078;11.684;2023-07-30T03:48:06;4.50;;;2.95;;
37873;SDS011;23709;48.078;11.684;2023-07-30T03:50:39;7.20;;;2.92;;
37873;SDS011;23709;48.078;11.684;2023-07-30T03:53:11;3.72;;;2.58;;
37873;SDS011;23709;48.078;11.684;2023-07-30T03:55:44;4.15;;;2.83;;
37873;SDS011;23709;48.078;11.684;2023-07-30T03:58:16;3.53;;;2.72;;
37873;SDS011;23709;48.078;11.684;2023-07-30T04:00:49;5.45;;;2.80;;
37873;SDS011;23709;48.078;11.684;2023-07-30T04:03:21;4.07;;;2.70;;
37873;SDS011;23709;48.078;11.684;2023-07-30T04:05:54;5.65;;;2.92;;
37873;SDS011;23709;48.078;11.684;2023-07-30T04:08:26;5.65;;;3.33;;
37873;SDS011;23709;48.078;11.684;2023-07-30T04:10:59;3.70;;;2.90;;
37873;SDS011;23709;48.078;11.684;2023-07-30T04:13:31;6.80;;;3.17;;
37873;SDS011;23709;48.078;11.684;2023-07-30T04:16:04;4.28;;;2.67;;
37873;SDS011;23709;48.078;11.684;2023-07-30T04:18:36;4.53;;;2.90;;
37873;SDS011;23709;48.078;11.684;2023-07-30T04:21:08;4.40;;;3.03;;
37873;SDS011;23709;48.078;11.684;2023-07-30T04:23:41;3.20;;;2.75;;
37873;SDS011;23709;48.078;11.684;2023-07-30T04:26:14;5.53;;;2.90;;
37873;SDS011;23709;48.078;11.684;2023-07-30T04:28:46;4.38;;;2.80;;
37873;SDS011;23709;48.078;11.684;2023-07-30T04:31:18;4.15;;;2.90;;
37873;SDS011;23709;48.078;11.684;2023-07-30T04:33:51;6.55;;;3.00;;
37873;SDS011;23709;48.078;11.684;2023-07-30T04:36:23;3.60;;;2.67;;
37873;SDS011;23709;48.078;11.684;2023-07-30T04:38:56;5.50;;;3.10;;
37873;SDS011;23709;48.078;11.684;2023-07-30T04:41:34;4.03;;;2.80;;
37873;SDS011;23709;48.078;11.684;2023-07-30T04:44:08;4.45;;;3.25;;
37873;SDS011;23709;48.078;11.684;2023-07-30T04:46:40;3.63;;;3.08;;
37873;SDS011;23709;48.078;11.684;2023-07-30T04:49:13;4.37;;;2.87;;
37873;SDS011;23709;48.078;11.684;2023-07-30T04:51:45;3.50;;;2.20;;
37873;SDS011;23709;48.078;11.684;2023-07-30T04:54:19;2.90;;;2.47;;
37873;SDS011;23709;48.078;11.684;2023-07-30T04:56:51;3.38;;;2.25;;
37873;SDS011;23709;48.078;11.684;2023-07-30T04:59:24;3.13;;;2.55;;
37873;SDS011;23709;48.078;11.684;2023-07-30T05:01:56;4.10;;;2.88;;
37873;SDS011;23709;48.078;11.684;2023-07-30T05:04:29;3.58;;;2.50;;
37873;SDS011;23709;48.078;11.684;2023-07-30T05:07:01;3.88;;;2.25;;
37873;SDS011;23709;48.078;11.684;2023-07-30T05:09:33;4.88;;;2.47;;
37873;SDS011;23709;48.078;11.684;2023-07-30T05:12:05;2.88;;;2.30;;
37873;SDS011;23709;48.078;11.684;2023-07-30T05:14:38;3.77;;;2.67;;
37873;SDS011;23709;48.078;11.684;2023-07-30T05:17:10;3.75;;;2.72;;
37873;SDS011;23709;48.078;11.684;2023-07-30T05:19:43;3.22;;;2.35;;
37873;SDS011;23709;48.078;11.684;2023-07-30T05:22:15;3.33;;;2.90;;
37873;SDS011;23709;48.078;11.684;2023-07-30T05:24:47;3.75;;;2.38;;
37873;SDS011;23709;48.078;11.684;2023-07-30T05:27:20;5.15;;;2.65;;
37873;SDS011;23709;48.078;11.684;2023-07-30T05:29:52;3.25;;;2.58;;
37873;SDS011;23709;48.078;11.684;2023-07-30T05:32:25;6.03;;;2.70;;
37873;SDS011;23709;48.078;11.684;2023-07-30T05:34:57;4.22;;;2.20;;
37873;SDS011;23709;48.078;11.684;2023-07-30T05:37:30;4.07;;;2.73;;
37873;SDS011;23709;48.078;11.684;2023-07-30T05:40:03;3.53;;;2.17;;
37873;SDS011;23709;48.078;11.684;2023-07-30T05:42:36;4.75;;;2.50;;
37873;SDS011;23709;48.078;11.684;2023-07-30T05:45:08;3.00;;;2.30;;
37873;SDS011;23709;48.078;11.684;2023-07-30T05:47:41;4.03;;;2.40;;
37873;SDS011;23709;48.078;11.684;2023-07-30T05:50:13;2.83;;;2.30;;
37873;SDS011;23709;48.078;11.684;2023-07-30T05:52:45;3.15;;;2.38;;
37873;SDS011;23709;48.078;11.684;2023-07-30T05:55:18;3.75;;;2.28;;
37873;SDS011;23709;48.078;11.684;2023-07-30T05:57:50;3.25;;;2.40;;
37873;SDS011;23709;48.078;11.684;2023-07-30T06:00:25;4.95;;;2.95;;
37873;SDS011;23709;48.078;11.684;2023-07-30T06:03:01;2.85;;;2.30;;
37873;SDS011;23709;48.078;11.684;2023-07-30T06:05:38;3.67;;;2.65;;
37873;SDS011;23709;48.078;11.684;2023-07-30T06:08:10;6.00;;;2.40;;
37873;SDS011;23709;48.078;11.684;2023-07-30T06:10:43;4.05;;;2.40;;
37873;SDS011;23709;48.078;11.684;2023-07-30T06:13:16;2.87;;;2.10;;
37873;SDS011;23709;48.078;11.684;2023-07-30T06:15:49;3.17;;;2.42;;
37873;SDS011;23709;48.078;11.684;2023-07-30T06:18:21;2.90;;;2.57;;
37873;SDS011;23709;48.078;11.684;2023-07-30T06:20:54;2.47;;;2.20;;
37873;SDS011;23709;48.078;11.684;2023-07-30T06:23:27;3.35;;;1.90;;
37873;SDS011;23709;48.078;11.684;2023-07-30T06:26:03;3.67;;;2.63;;
37873;SDS011;23709;48.078;11.684;2023-07-30T06:28:36;3.22;;;2.30;;
37873;SDS011;23709;48.078;11.684;2023-07-30T06:31:08;3.00;;;2.28;;
37873;SDS011;23709;48.078;11.684;2023-07-30T06:33:41;5.53;;;2.53;;
37873;SDS011;23709;48.078;11.684;2023-07-30T06:36:13;3.58;;;2.30;;
37873;SDS011;23709;48.078;11.684;2023-07-30T06:38:46;3.35;;;2.53;;
37873;SDS011;23709;48.078;11.684;2023-07-30T06:41:18;2.45;;;2.08;;
37873;SDS011;23709;48.078;11.684;2023-07-30T06:43:51;3.00;;;2.30;;
37873;SDS011;23709;48.078;11.684;2023-07-30T06:46:24;5.97;;;2.10;;
37873;SDS011;23709;48.078;11.684;2023-07-30T06:48:56;5.25;;;2.13;;
37873;SDS011;23709;48.078;11.684;2023-07-30T06:51:28;4.55;;;2.30;;
37873;SDS011;23709;48.078;11.684;2023-07-30T06:54:01;3.00;;;2.20;;
37873;SDS011;23709;48.078;11.684;2023-07-30T06:56:34;3.10;;;2.30;;
37873;SDS011;23709;48.078;11.684;2023-07-30T06:59:07;2.88;;;2.20;;
37873;SDS011;23709;48.078;11.684;2023-07-30T07:01:39;3.90;;;2.25;;
37873;SDS011;23709;48.078;11.684;2023-07-30T07:04:13;2.17;;;1.98;;
37873;SDS011;23709;48.078;11.684;2023-07-30T07:06:45;7.05;;;2.28;;
37873;SDS011;23709;48.078;11.684;2023-07-30T07:09:17;2.47;;;2.10;;
37873;SDS011;23709;48.078;11.684;2023-07-30T07:11:50;5.40;;;2.50;;
37873;SDS011;23709;48.078;11.684;2023-07-30T07:14:22;2.67;;;1.88;;
37873;SDS011;23709;48.078;11.684;2023-07-30T07:16:54;3.55;;;2.35;;
37873;SDS011;23709;48.078;11.684;2023-07-30T07:19:30;3.65;;;2.28;;
37873;SDS011;23709;48.078;11.684;2023-07-30T07:22:03;2.30;;;1.90;;
37873;SDS011;23709;48.078;11.684;2023-07-30T07:24:36;3.60;;;2.13;;
37873;SDS011;23709;48.078;11.684;2023-07-30T07:27:11;5.78;;;2.45;;
37873;SDS011;23709;48.078;11.684;2023-07-30T07:29:44;4.78;;;2.20;;
37873;SDS011;23709;48.078;11.684;2023-07-30T07:32:16;3.38;;;2.38;;
37873;SDS011;23709;48.078;11.684;2023-07-30T07:34:49;1.90;;;1.60;;
37873;SDS011;23709;48.078;11.684;2023-07-30T07:37:21;2.42;;;2.05;;
37873;SDS011;23709;48.078;11.684;2023-07-30T07:39:54;3.67;;;2.13;;
37873;SDS011;23709;48.078;11.684;2023-07-30T07:42:26;2.60;;;2.00;;
37873;SDS011;23709;48.078;11.684;2023-07-30T07:45:01;3.90;;;2.42;;
37873;SDS011;23709;48.078;11.684;2023-07-30T07:47:35;2.53;;;2.10;;
37873;SDS011;23709;48.078;11.684;2023-07-30T07:50:10;4.65;;;2.25;;
37873;SDS011;23709;48.078;11.684;2023-07-30T07:52:51;3.58;;;2.15;;
37873;SDS011;23709;48.078;11.684;2023-07-30T07:55:32;3.70;;;2.22;;
37873;SDS011;23709;48.078;11.684;2023-07-30T07:58:06;2.85;;;2.00;;
37873;SDS011;23709;48.078;11.684;2023-07-30T08:00:58;2.67;;;2.00;;
37873;SDS011;23709;48.078;11.684;2023-07-30T08:03:34;3.00;;;2.13;;
37873;SDS011;23709;48.078;11.684;2023-07-30T08:08:52;3.17;;;2.13;;
37873;SDS011;23709;48.078;11.684;2023-07-30T08:14:36;3.13;;;2.33;;
37873;SDS011;23709;48.078;11.684;2023-07-30T08:23:55;3.00;;;2.03;;
37873;SDS011;23709;48.078;11.684;2023-07-30T08:26:37;4.80;;;2.33;;
37873;SDS011;23709;48.078;11.684;2023-07-30T08:29:29;3.15;;;2.13;;
37873;SDS011;23709;48.078;11.684;2023-07-30T08:32:20;3.50;;;2.08;;
37873;SDS011;23709;48.078;11.684;2023-07-30T08:35:10;3.85;;;2.00;;
37873;SDS011;23709;48.078;11.684;2023-07-30T08:37:48;5.18;;;1.95;;
37873;SDS011;23709;48.078;11.684;2023-07-30T08:40:27;2.97;;;1.92;;
37873;SDS011;23709;48.078;11.684;2023-07-30T08:43:08;2.90;;;1.90;;
37873;SDS011;23709;48.078;11.684;2023-07-30T08:45:46;2.88;;;2.05;;
37873;SDS011;23709;48.078;11.684;2023-07-30T08:48:35;2.75;;;2.00;;
37873;SDS011;23709;48.078;11.684;2023-07-30T08:58:01;2.28;;;1.67;;
37873;SDS011;23709;48.078;11.684;2023-07-30T09:00:49;2.97;;;2.38;;
37873;SDS011;23709;48.078;11.684;2023-07-30T09:03:25;2.90;;;2.05;;
37873;SDS011;23709;48.078;11.684;2023-07-30T09:06:19;1.80;;;1.45;;
37873;SDS011;23709;48.078;11.684;2023-07-30T09:09:35;3.40;;;1.98;;
37873;SDS011;23709;48.078;11.684;2023-07-30T09:12:14;2.20;;;1.80;;
37873;SDS011;23709;48.078;11.684;2023-07-30T09:18:09;2.63;;;2.00;;
37873;SDS011;23709;48.078;11.684;2023-07-30T09:20:49;2.72;;;2.03;;
37873;SDS011;23709;48.078;11.684;2023-07-30T09:26:32;2.17;;;1.75;;
37873;SDS011;23709;48.078;11.684;2023-07-30T09:29:30;2.53;;;2.03;;
37873;SDS011;23709;48.078;11.684;2023-07-30T09:32:10;2.22;;;1.90;;
37873;SDS011;23709;48.078;11.684;2023-07-30T09:35:18;2.53;;;1.88;;
37873;SDS011;23709;48.078;11.684;2023-07-30T09:38:00;2.30;;;1.67;;
37873;SDS011;23709;48.078;11.684;2023-07-30T09:40:36;2.78;;;2.17;;
37873;SDS011;23709;48.078;11.684;2023-07-30T09:43:10;2.45;;;1.98;;
37873;SDS011;23709;48.078;11.684;2023-07-30T09:45:44;3.45;;;1.73;;
37873;SDS011;23709;48.078;11.684;2023-07-30T09:48:19;1.83;;;1.63;;
37873;SDS011;23709;48.078;11.684;2023-07-30T09:50:52;2.22;;;1.80;;
37873;SDS011;23709;48.078;11.684;2023-07-30T09:53:26;2.00;;;1.80;;
37873;SDS011;23709;48.078;11.684;2023-07-30T09:56:04;2.15;;;1.95;;
37873;SDS011;23709;48.078;11.684;2023-07-30T09:58:39;3.17;;;1.90;;
37873;SDS011;23709;48.078;11.684;2023-07-30T10:01:14;2.47;;;2.00;;
37873;SDS011;23709;48.078;11.684;2023-07-30T10:03:47;2.38;;;2.00;;
37873;SDS011;23709;48.078;11.684;2023-07-30T10:06:21;4.28;;;1.85;;
37873;SDS011;23709;48.078;11.684;2023-07-30T10:08:55;2.97;;;2.20;;
37873;SDS011;23709;48.078;11.684;2023-07-30T10:11:31;2.65;;;1.65;;
37873;SDS011;23709;48.078;11.684;2023-07-30T10:14:04;2.95;;;2.05;;
37873;SDS011;23709;48.078;11.684;2023-07-30T10:16:37;2.45;;;1.80;;
37873;SDS011;23709;48.078;11.684;2023-07-30T10:19:10;6.82;;;2.00;;
37873;SDS011;23709;48.078;11.684;2023-07-30T10:21:43;5.43;;;2.30;;
37873;SDS011;23709;48.078;11.684;2023-07-30T10:24:16;3.67;;;1.90;;
37873;SDS011;23709;48.078;11.684;2023-07-30T10:26:48;3.10;;;1.92;;
37873;SDS011;23709;48.078;11.684;2023-07-30T10:29:21;3.13;;;2.00;;
37873;SDS011;23709;48.078;11.684;2023-07-30T10:31:55;8.68;;;2.67;;
37873;SDS011;23709;48.078;11.684;2023-07-30T10:35:02;3.60;;;2.25;;
37873;SDS011;23709;48.078;11.684;2023-07-30T10:37:27;3.72;;;2.50;;
37873;SDS011;23709;48.078;11.684;2023-07-30T10:40:00;4.60;;;2.20;;
37873;SDS011;23709;48.078;11.684;2023-07-30T10:42:33;3.05;;;2.40;;
37873;SDS011;23709;48.078;11.684;2023-07-30T10:45:06;3.35;;;2.10;;
37873;SDS011;23709;48.078;11.684;2023-07-30T10:47:47;2.17;;;1.95;;
37873;SDS011;23709;48.078;11.684;2023-07-30T10:50:25;2.15;;;1.80;;
37873;SDS011;23709;48.078;11.684;2023-07-30T10:52:58;3.17;;;1.97;;
37873;SDS011;23709;48.078;11.684;2023-07-30T10:55:32;4.43;;;2.00;;
37873;SDS011;23709;48.078;11.684;2023-07-30T11:00:38;3.67;;;1.88;;
37873;SDS011;23709;48.078;11.684;2023-07-30T11:03:11;5.28;;;2.30;;
37873;SDS011;23709;48.078;11.684;2023-07-30T11:05:47;3.38;;;2.05;;
37873;SDS011;23709;48.078;11.684;2023-07-30T11:08:45;2.92;;;2.30;;
37873;SDS011;23709;48.078;11.684;2023-07-30T11:11:18;3.35;;;2.20;;
37873;SDS011;23709;48.078;11.684;2023-07-30T11:13:50;4.17;;;2.47;;
37873;SDS011;23709;48.078;11.684;2023-07-30T11:16:28;2.95;;;1.80;;
37873;SDS011;23709;48.078;11.684;2023-07-30T11:19:08;4.05;;;2.03;;
37873;SDS011;23709;48.078;11.684;2023-07-30T11:22:02;4.20;;;2.22;;
37873;SDS011;23709;48.078;11.684;2023-07-30T11:24:46;4.05;;;1.85;;
37873;SDS011;23709;48.078;11.684;2023-07-30T11:27:18;1.63;;;1.50;;
37873;SDS011;23709;48.078;11.684;2023-07-30T11:29:56;2.20;;;2.00;;
37873;SDS011;23709;48.078;11.684;2023-07-30T11:32:28;2.47;;;1.77;;
37873;SDS011;23709;48.078;11.684;2023-07-30T11:35:03;3.00;;;1.98;;
37873;SDS011;23709;48.078;11.684;2023-07-30T11:37:38;2.00;;;1.80;;
37873;SDS011;23709;48.078;11.684;2023-07-30T11:40:16;1.70;;;1.55;;
37873;SDS011;23709;48.078;11.684;2023-07-30T11:42:49;2.40;;;1.90;;
37873;SDS011;23709;48.078;11.684;2023-07-30T11:45:22;2.30;;;1.80;;
37873;SDS011;23709;48.078;11.684;2023-07-30T11:48:05;1.88;;;1.67;;
37873;SDS011;23709;48.078;11.684;2023-07-30T11:53:44;4.38;;;1.90;;
37873;SDS011;23709;48.078;11.684;2023-07-30T11:56:27;1.95;;;1.50;;
37873;SDS011;23709;48.078;11.684;2023-07-30T11:59:05;2.50;;;1.80;;
37873;SDS011;23709;48.078;11.684;2023-07-30T12:01:38;4.70;;;1.60;;
37873;SDS011;23709;48.078;11.684;2023-07-30T12:04:14;5.38;;;1.80;;
37873;SDS011;23709;48.078;11.684;2023-07-30T12:06:47;2.97;;;1.80;;
37873;SDS011;23709;48.078;11.684;2023-07-30T12:09:21;1.98;;;1.63;;
37873;SDS011;23709;48.078;11.684;2023-07-30T12:11:55;6.15;;;2.53;;
37873;SDS011;23709;48.078;11.684;2023-07-30T12:14:29;3.00;;;2.00;;
37873;SDS011;23709;48.078;11.684;2023-07-30T12:17:20;3.78;;;3.05;;
37873;SDS011;23709;48.078;11.684;2023-07-30T12:19:54;4.47;;;3.53;;
37873;SDS011;23709;48.078;11.684;2023-07-30T12:22:26;3.63;;;3.05;;
37873;SDS011;23709;48.078;11.684;2023-07-30T12:24:58;2.42;;;1.88;;
37873;SDS011;23709;48.078;11.684;2023-07-30T12:27:30;1.92;;;1.70;;
37873;SDS011;23709;48.078;11.684;2023-07-30T12:30:02;2.75;;;1.83;;
37873;SDS011;23709;48.078;11.684;2023-07-30T12:32:35;2.42;;;1.80;;
37873;SDS011;23709;48.078;11.684;2023-07-30T12:35:07;3.00;;;1.70;;
37873;SDS011;23709;48.078;11.684;2023-07-30T12:37:39;4.23;;;1.67;;
37873;SDS011;23709;48.078;11.684;2023-07-30T12:40:12;2.28;;;2.00;;
37873;SDS011;23709;48.078;11.684;2023-07-30T12:42:44;1.60;;;1.50;;
37873;SDS011;23709;48.078;11.684;2023-07-30T12:45:16;2.60;;;2.00;;
37873;SDS011;23709;48.078;11.684;2023-07-30T12:47:49;2.38;;;1.92;;
37873;SDS011;23709;48.078;11.684;2023-07-30T12:50:21;1.98;;;1.63;;
37873;SDS011;23709;48.078;11.684;2023-07-30T12:52:54;2.85;;;1.77;;
37873;SDS011;23709;48.078;11.684;2023-07-30T12:55:26;2.42;;;1.77;;
37873;SDS011;23709;48.078;11.684;2023-07-30T12:57:58;2.97;;;2.25;;
37873;SDS011;23709;48.078;11.684;2023-07-30T13:00:31;2.50;;;1.80;;
37873;SDS011;23709;48.078;11.684;2023-07-30T13:03:04;2.53;;;1.80;;
37873;SDS011;23709;48.078;11.684;2023-07-30T13:05:36;3.22;;;2.00;;
37873;SDS011;23709;48.078;11.684;2023-07-30T13:08:09;2.92;;;1.92;;
37873;SDS011;23709;48.078;11.684;2023-07-30T13:10:41;3.90;;;2.03;;
37873;SDS011;23709;48.078;11.684;2023-07-30T13:13:13;2.42;;;1.88;;
37873;SDS011;23709;48.078;11.684;2023-07-30T13:15:45;2.38;;;1.95;;
37873;SDS011;23709;48.078;11.684;2023-07-30T13:18:17;2.50;;;2.22;;
37873;SDS011;23709;48.078;11.684;2023-07-30T13:20:50;2.22;;;2.00;;
37873;SDS011;23709;48.078;11.684;2023-07-30T13:23:22;4.22;;;2.25;;
37873;SDS011;23709;48.078;11.684;2023-07-30T13:25:57;3.03;;;1.92;;
37873;SDS011;23709;48.078;11.684;2023-07-30T13:28:29;3.25;;;2.20;;
37873;SDS011;23709;48.078;11.684;2023-07-30T13:31:01;3.15;;;2.63;;
37873;SDS011;23709;48.078;11.684;2023-07-30T13:33:33;2.70;;;2.00;;
37873;SDS011;23709;48.078;11.684;2023-07-30T13:36:06;3.05;;;2.20;;
37873;SDS011;23709;48.078;11.684;2023-07-30T13:38:38;3.25;;;2.17;;
37873;SDS011;23709;48.078;11.684;2023-07-30T13:41:11;4.32;;;2.30;;
37873;SDS011;23709;48.078;11.684;2023-07-30T13:43:43;5.07;;;2.28;;
37873;SDS011;23709;48.078;11.684;2023-07-30T13:46:15;2.47;;;2.10;;
37873;SDS011;23709;48.078;11.684;2023-07-30T13:48:47;2.83;;;2.00;;
37873;SDS011;23709;48.078;11.684;2023-07-30T13:51:20;2.80;;;2.30;;
37873;SDS011;23709;48.078;11.684;2023-07-30T13:53:52;5.35;;;2.30;;
37873;SDS011;23709;48.078;11.684;2023-07-30T13:56:25;3.55;;;2.17;;
37873;SDS011;23709;48.078;11.684;2023-07-30T13:59:01;5.30;;;2.25;;
37873;SDS011;23709;48.078;11.684;2023-07-30T14:01:33;2.63;;;1.20;;
37873;SDS011;23709;48.078;11.684;2023-07-30T14:04:06;2.15;;;1.42;;
37873;SDS011;23709;48.078;11.684;2023-07-30T14:06:38;4.35;;;1.60;;
37873;SDS011;23709;48.078;11.684;2023-07-30T14:09:11;3.95;;;1.55;;
37873;SDS011;23709;48.078;11.684;2023-07-30T14:11:43;2.40;;;1.70;;
37873;SDS011;23709;48.078;11.684;2023-07-30T14:14:18;3.58;;;2.30;;
37873;SDS011;23709;48.078;11.684;2023-07-30T14:16:52;2.90;;;2.10;;
37873;SDS011;23709;48.078;11.684;2023-07-30T14:19:26;4.50;;;2.28;;
37873;SDS011;23709;48.078;11.684;2023-07-30T14:21:58;3.28;;;2.25;;
37873;SDS011;23709;48.078;11.684;2023-07-30T14:24:30;2.40;;;1.80;;
37873;SDS011;23709;48.078;11.684;2023-07-30T14:27:03;5.97;;;2.78;;
37873;SDS011;23709;48.078;11.684;2023-07-30T14:29:35;8.33;;;2.53;;
37873;SDS011;23709;48.078;11.684;2023-07-30T14:32:07;3.00;;;2.23;;
37873;SDS011;23709;48.078;11.684;2023-07-30T14:34:40;2.47;;;1.90;;
37873;SDS011;23709;48.078;11.684;2023-07-30T14:37:13;3.03;;;2.03;;
37873;SDS011;23709;48.078;11.684;2023-07-30T14:39:46;3.05;;;2.13;;
37873;SDS011;23709;48.078;11.684;2023-07-30T14:42:18;4.68;;;2.35;;
37873;SDS011;23709;48.078;11.684;2023-07-30T14:44:50;2.58;;;2.25;;
37873;SDS011;23709;48.078;11.684;2023-07-30T14:47:22;3.58;;;2.58;;
37873;SDS011;23709;48.078;11.684;2023-07-30T14:49:55;2.60;;;2.20;;
37873;SDS011;23709;48.078;11.684;2023-07-30T14:52:27;3.15;;;2.53;;
37873;SDS011;23709;48.078;11.684;2023-07-30T14:55:00;3.97;;;2.50;;
37873;SDS011;23709;48.078;11.684;2023-07-30T14:57:32;4.63;;;2.47;;
37873;SDS011;23709;48.078;11.684;2023-07-30T15:00:04;5.60;;;2.67;;
37873;SDS011;23709;48.078;11.684;2023-07-30T15:02:39;2.40;;;2.15;;
37873;SDS011;23709;48.078;11.684;2023-07-30T15:05:12;3.05;;;2.45;;
37873;SDS011;23709;48.078;11.684;2023-07-30T15:07:44;3.63;;;2.20;;
37873;SDS011;23709;48.078;11.684;2023-07-30T15:10:16;3.10;;;2.30;;
37873;SDS011;23709;48.078;11.684;2023-07-30T15:12:48;3.17;;;1.98;;
37873;SDS011;23709;48.078;11.684;2023-07-30T15:15:21;4.18;;;2.50;;
37873;SDS011;23709;48.078;11.684;2023-07-30T15:17:53;2.15;;;1.95;;
37873;SDS011;23709;48.078;11.684;2023-07-30T15:20:26;2.85;;;2.40;;
37873;SDS011;23709;48.078;11.684;2023-07-30T15:22:59;2.30;;;2.10;;
37873;SDS011;23709;48.078;11.684;2023-07-30T15:25:32;2.60;;;2.15;;
37873;SDS011;23709;48.078;11.684;2023-07-30T15:28:04;3.28;;;2.47;;
37873;SDS011;23709;48.078;11.684;2023-07-30T15:30:36;5.20;;;2.40;;
37873;SDS011;23709;48.078;11.684;2023-07-30T15:33:11;3.35;;;2.47;;
37873;SDS011;23709;48.078;11.684;2023-07-30T15:35:43;4.28;;;2.50;;
37873;SDS011;23709;48.078;11.684;2023-07-30T15:38:15;2.58;;;2.30;;
37873;SDS011;23709;48.078;11.684;2023-07-30T15:40:47;4.15;;;2.15;;
37873;SDS011;23709;48.078;11.684;2023-07-30T15:43:19;2.95;;;2.38;;
37873;SDS011;23709;48.078;11.684;2023-07-30T15:45:52;3.20;;;2.30;;
37873;SDS011;23709;48.078;11.684;2023-07-30T15:51:00;3.03;;;2.40;;
37873;SDS011;23709;48.078;11.684;2023-07-30T15:53:33;3.65;;;2.17;;